createdAt,value
2023-02-02T00:00:50.759Z,99686.00
2023-02-02T00:02:23.861Z,99678.00
2023-02-02T00:03:58.862Z,99667.00
2023-02-02T00:05:32.247Z,99668.00
2023-02-02T00:07:07.383Z,99678.00
2023-02-02T00:08:40.564Z,99670.00
2023-02-02T00:10:12.812Z,99670.00
2023-02-02T00:11:48.539Z,99668.00
2023-02-02T00:13:20.854Z,99667.00
2023-02-02T00:14:53.968Z,99659.00
2023-02-02T00:16:42.965Z,99658.00
2023-02-02T00:18:16.087Z,99659.00
2023-02-02T00:19:50.696Z,99655.00
2023-02-02T00:21:23.565Z,99653.00
2023-02-02T00:22:57.526Z,99645.00
2023-02-02T00:24:30.757Z,99653.00
2023-02-02T00:26:03.815Z,99653.00
2023-02-02T00:27:37.127Z,99649.00
2023-02-02T00:29:16.380Z,99643.00
2023-02-02T00:30:49.563Z,99648.00
2023-02-02T00:32:22.869Z,99656.00
2023-02-02T00:33:56.257Z,99649.00
2023-02-02T00:35:30.782Z,99647.00
2023-02-02T00:37:05.061Z,99649.00
2023-02-02T00:38:38.062Z,99658.00
2023-02-02T00:40:12.788Z,99666.00
2023-02-02T00:41:46.347Z,99661.00
2023-02-02T00:43:19.668Z,99658.00
2023-02-02T00:45:11.113Z,99663.00
2023-02-02T00:46:43.656Z,99671.00
2023-02-02T00:48:16.711Z,99661.00
2023-02-02T00:49:49.915Z,99657.00
2023-02-02T00:51:24.640Z,99652.00
2023-02-02T00:52:59.042Z,99650.00
2023-02-02T00:54:31.215Z,99656.00
2023-02-02T00:56:05.136Z,99655.00
2023-02-02T00:57:37.437Z,99659.00
2023-02-02T00:59:10.860Z,99659.00
2023-02-02T01:00:44.027Z,99651.00
2023-02-02T01:02:17.201Z,99666.00
2023-02-02T01:03:49.871Z,99665.00
2023-02-02T01:05:24.182Z,99669.00
2023-02-02T01:06:59.206Z,99667.00
2023-02-02T01:08:32.558Z,99668.00
2023-02-02T01:10:08.446Z,99657.00
2023-02-02T01:11:41.396Z,99660.00
2023-02-02T01:13:14.660Z,99657.00
2023-02-02T01:14:49.109Z,99670.00
2023-02-02T01:16:23.340Z,99670.00
2023-02-02T01:17:57.281Z,99669.00
2023-02-02T01:19:30.664Z,99670.00
2023-02-02T01:21:07.157Z,99671.00
2023-02-02T01:22:41.683Z,99668.00
2023-02-02T01:24:14.852Z,99669.00
2023-02-02T01:25:53.710Z,99671.00
2023-02-02T01:27:27.308Z,99680.00
2023-02-02T01:29:00.795Z,99680.00
2023-02-02T01:30:32.905Z,99686.00
2023-02-02T01:32:06.314Z,99683.00
2023-02-02T01:33:39.388Z,99696.00
2023-02-02T01:35:12.683Z,99678.00
2023-02-02T01:36:45.913Z,99685.00
2023-02-02T01:38:21.502Z,99675.00
2023-02-02T01:39:54.831Z,99673.00
2023-02-02T01:41:28.921Z,99677.00
2023-02-02T01:43:02.078Z,99669.00
2023-02-02T01:45:17.397Z,99675.00
2023-02-02T01:46:50.415Z,99676.00
2023-02-02T01:48:30.447Z,99684.00
2023-02-02T01:50:06.350Z,99661.00
2023-02-02T01:51:47.526Z,99671.00
2023-02-02T01:53:23.454Z,99669.00
2023-02-02T01:55:01.549Z,99673.00
2023-02-02T01:56:42.291Z,99673.00
2023-02-02T01:58:20.782Z,99688.00
2023-02-02T01:59:58.244Z,99681.00
2023-02-02T02:01:31.676Z,99679.00
2023-02-02T02:03:12.275Z,99683.00
2023-02-02T02:04:44.970Z,99685.00
2023-02-02T02:06:20.864Z,99687.00
2023-02-02T02:08:01.590Z,99685.00
2023-02-02T02:09:36.361Z,99691.00
2023-02-02T02:11:10.218Z,99694.00
2023-02-02T02:12:43.741Z,99693.00
2023-02-02T02:14:35.773Z,99687.00
2023-02-02T02:16:20.971Z,99697.00
2023-02-02T02:18:09.671Z,99694.00
2023-02-02T02:20:43.151Z,99690.00
2023-02-02T02:22:35.247Z,99702.00
2023-02-02T02:25:12.588Z,99694.00
2023-02-02T02:27:24.923Z,99704.00
2023-02-02T02:29:40.703Z,99691.00
2023-02-02T02:32:05.670Z,99683.00
2023-02-02T02:33:49.987Z,99691.00
2023-02-02T02:35:35.549Z,99701.00
2023-02-02T02:37:16.404Z,99692.00
2023-02-02T02:39:01.733Z,99693.00
2023-02-02T02:40:41.148Z,99693.00
2023-02-02T02:42:17.393Z,99685.00
2023-02-02T02:43:57.259Z,99682.00
2023-02-02T02:45:31.503Z,99685.00
2023-02-02T02:47:05.434Z,99677.00
2023-02-02T02:48:38.851Z,99680.00
2023-02-02T02:50:12.277Z,99687.00
2023-02-02T02:51:48.939Z,99682.00
2023-02-02T02:53:30.110Z,99684.00
2023-02-02T02:55:05.577Z,99679.00
2023-02-02T02:56:55.739Z,99692.00
2023-02-02T02:58:37.151Z,99684.00
2023-02-02T03:00:32.178Z,99686.00
2023-02-02T03:02:28.825Z,99675.00
2023-02-02T03:04:13.982Z,99689.00
2023-02-02T03:05:56.420Z,99680.00
2023-02-02T03:07:39.252Z,99687.00
2023-02-02T03:09:17.442Z,99685.00
2023-02-02T03:10:51.058Z,99680.00
2023-02-02T03:12:25.171Z,99687.00
2023-02-02T03:13:58.636Z,99677.00
2023-02-02T03:15:36.013Z,99681.00
2023-02-02T03:17:10.512Z,99672.00
2023-02-02T03:18:43.808Z,99688.00
2023-02-02T03:20:18.469Z,99691.00
2023-02-02T03:21:51.783Z,99688.00
2023-02-02T03:23:23.989Z,99695.00
2023-02-02T03:24:59.393Z,99690.00
2023-02-02T03:26:32.836Z,99690.00
2023-02-02T03:28:07.662Z,99694.00
2023-02-02T03:29:40.856Z,99695.00
2023-02-02T03:31:14.725Z,99694.00
2023-02-02T03:32:50.431Z,99695.00
2023-02-02T03:34:23.781Z,99703.00
2023-02-02T03:35:56.958Z,99700.00
2023-02-02T03:37:30.104Z,99694.00
2023-02-02T03:39:03.541Z,99678.00
2023-02-02T03:40:36.970Z,99683.00
2023-02-02T03:42:10.134Z,99677.00
2023-02-02T03:43:43.602Z,99674.00
2023-02-02T03:45:17.814Z,99678.00
2023-02-02T03:46:54.827Z,99679.00
2023-02-02T03:48:29.415Z,99678.00
2023-02-02T03:50:02.739Z,99686.00
2023-02-02T03:51:35.854Z,99686.00
2023-02-02T03:53:08.997Z,99674.00
2023-02-02T03:54:42.239Z,99682.00
2023-02-02T03:56:16.343Z,99677.00
2023-02-02T03:57:48.534Z,99685.00
2023-02-02T03:59:21.673Z,99676.00
2023-02-02T04:00:55.707Z,99671.00
2023-02-02T04:02:28.920Z,99673.00
2023-02-02T04:04:03.519Z,99675.00
2023-02-02T04:05:36.801Z,99682.00
2023-02-02T04:07:10.123Z,99684.00
2023-02-02T04:08:43.298Z,99684.00
2023-02-02T04:10:16.766Z,99681.00
2023-02-02T04:11:50.118Z,99676.00
2023-02-02T04:13:23.458Z,99678.00
2023-02-02T04:14:56.586Z,99670.00
2023-02-02T04:16:34.605Z,99681.00
2023-02-02T04:18:08.084Z,99677.00
2023-02-02T04:19:42.502Z,99683.00
2023-02-02T04:21:15.668Z,99670.00
2023-02-02T04:22:48.795Z,99665.00
2023-02-02T04:24:21.837Z,99679.00
2023-02-02T04:25:55.663Z,99672.00
2023-02-02T04:27:27.877Z,99675.00
2023-02-02T04:29:01.015Z,99675.00
2023-02-02T04:30:34.128Z,99674.00
2023-02-02T04:32:06.353Z,99690.00
2023-02-02T04:33:39.513Z,99679.00
2023-02-02T04:35:14.102Z,99672.00
2023-02-02T04:36:47.513Z,99682.00
2023-02-02T04:38:20.189Z,99675.00
2023-02-02T04:39:55.237Z,99672.00
2023-02-02T04:41:28.722Z,99677.00
2023-02-02T04:43:02.084Z,99682.00
2023-02-02T04:44:35.916Z,99683.00
2023-02-02T04:46:09.147Z,99686.00
2023-02-02T04:47:42.550Z,99681.00
2023-02-02T04:49:15.837Z,99683.00
2023-02-02T04:50:50.266Z,99684.00
2023-02-02T04:52:23.527Z,99682.00
2023-02-02T04:53:56.873Z,99693.00
2023-02-02T04:55:30.146Z,99702.00
2023-02-02T04:57:03.270Z,99700.00
2023-02-02T04:58:36.537Z,99699.00
2023-02-02T05:00:12.434Z,99701.00
2023-02-02T05:01:45.533Z,99705.00
2023-02-02T05:03:17.761Z,99702.00
2023-02-02T05:04:50.994Z,99711.00
2023-02-02T05:06:26.026Z,99703.00
2023-02-02T05:07:59.920Z,99700.00
2023-02-02T05:09:33.213Z,99696.00
2023-02-02T05:11:10.152Z,99688.00
2023-02-02T05:12:42.491Z,99688.00
2023-02-02T05:14:18.331Z,99693.00
2023-02-02T05:15:51.463Z,99696.00
2023-02-02T05:17:24.623Z,99684.00
2023-02-02T05:18:59.529Z,99694.00
2023-02-02T05:20:32.769Z,99694.00
2023-02-02T05:22:07.239Z,99696.00
2023-02-02T05:23:40.510Z,99693.00
2023-02-02T05:25:13.923Z,99694.00
2023-02-02T05:26:47.551Z,99702.00
2023-02-02T05:28:21.307Z,99685.00
2023-02-02T05:29:54.441Z,99702.00
2023-02-02T05:31:27.673Z,99699.00
2023-02-02T05:33:00.883Z,99704.00
2023-02-02T05:34:34.057Z,99701.00
2023-02-02T05:36:08.351Z,99706.00
2023-02-02T05:37:44.374Z,99698.00
2023-02-02T05:39:17.540Z,99713.00
2023-02-02T05:40:50.792Z,99714.00
2023-02-02T05:42:23.986Z,99710.00
2023-02-02T05:43:57.276Z,99710.00
2023-02-02T05:45:30.700Z,99712.00
2023-02-02T05:47:03.806Z,99709.00
2023-02-02T05:48:37.085Z,99703.00
2023-02-02T05:50:11.633Z,99698.00
2023-02-02T05:51:48.495Z,99692.00
2023-02-02T05:53:23.072Z,99697.00
2023-02-02T05:54:56.202Z,99695.00
2023-02-02T05:56:29.378Z,99699.00
2023-02-02T05:58:02.576Z,99703.00
2023-02-02T05:59:35.753Z,99697.00
2023-02-02T06:01:09.709Z,99698.00
2023-02-02T06:02:42.929Z,99711.00
2023-02-02T06:04:17.174Z,99706.00
2023-02-02T06:05:50.745Z,99708.00
2023-02-02T06:07:24.128Z,99704.00
2023-02-02T06:08:58.822Z,99692.00
2023-02-02T06:10:32.195Z,99707.00
2023-02-02T06:12:06.455Z,99711.00
2023-02-02T06:13:39.948Z,99712.00
2023-02-02T06:15:15.686Z,99716.00
2023-02-02T06:16:48.825Z,99713.00
2023-02-02T06:18:21.952Z,99711.00
2023-02-02T06:19:55.079Z,99709.00
2023-02-02T06:21:31.018Z,99708.00
2023-02-02T06:23:05.212Z,99717.00
2023-02-02T06:24:39.875Z,99710.00
2023-02-02T06:26:13.233Z,99712.00
2023-02-02T06:27:46.546Z,99713.00
2023-02-02T06:29:20.179Z,99715.00
2023-02-02T06:30:53.671Z,99712.00
2023-02-02T06:32:26.933Z,99717.00
2023-02-02T06:34:00.867Z,99722.00
2023-02-02T06:35:34.834Z,99722.00
2023-02-02T06:37:08.352Z,99719.00
2023-02-02T06:38:42.501Z,99728.00
2023-02-02T06:40:17.634Z,99721.00
2023-02-02T06:41:51.966Z,99719.00
2023-02-02T06:43:25.156Z,99719.00
2023-02-02T06:44:58.309Z,99723.00
2023-02-02T06:46:31.843Z,99724.00
2023-02-02T06:48:10.734Z,99728.00
2023-02-02T06:49:43.915Z,99730.00
2023-02-02T06:51:17.161Z,99733.00
2023-02-02T06:52:50.682Z,99722.00
2023-02-02T06:54:23.822Z,99720.00
2023-02-02T06:56:01.427Z,99728.00
2023-02-02T06:57:34.928Z,99729.00
2023-02-02T06:59:08.513Z,99731.00
2023-02-02T07:00:41.970Z,99733.00
2023-02-02T07:02:15.306Z,99740.00
2023-02-02T07:03:51.027Z,99734.00
2023-02-02T07:05:25.584Z,99736.00
2023-02-02T07:06:58.995Z,99743.00
2023-02-02T07:08:32.179Z,99738.00
2023-02-02T07:10:05.816Z,99743.00
2023-02-02T07:11:41.992Z,99746.00
2023-02-02T07:13:17.211Z,99737.00
2023-02-02T07:14:50.406Z,99743.00
2023-02-02T07:16:23.764Z,99751.00
2023-02-02T07:17:56.870Z,99757.00
2023-02-02T07:19:30.411Z,99747.00
2023-02-02T07:21:05.570Z,99749.00
2023-02-02T07:22:39.903Z,99742.00
2023-02-02T07:24:13.447Z,99749.00
2023-02-02T07:25:46.572Z,99750.00
2023-02-02T07:27:21.262Z,99754.00
2023-02-02T07:28:54.459Z,99765.00
2023-02-02T07:30:29.679Z,99763.00
2023-02-02T07:32:02.977Z,99763.00
2023-02-02T07:33:40.015Z,99754.00
2023-02-02T07:35:13.114Z,99759.00
2023-02-02T07:36:46.512Z,99770.00
2023-02-02T07:38:20.431Z,99762.00
2023-02-02T07:39:53.681Z,99770.00
2023-02-02T07:41:27.873Z,99766.00
2023-02-02T07:43:02.601Z,99779.00
2023-02-02T07:44:35.900Z,99769.00
2023-02-02T07:46:14.183Z,99766.00
2023-02-02T07:47:47.433Z,99770.00
2023-02-02T07:49:20.917Z,99770.00
2023-02-02T07:50:54.051Z,99779.00
2023-02-02T07:52:27.255Z,99770.00
2023-02-02T07:54:00.419Z,99770.00
2023-02-02T07:55:33.748Z,99785.00
2023-02-02T07:57:07.414Z,99778.00
2023-02-02T07:58:43.063Z,99779.00
2023-02-02T08:00:17.286Z,99772.00
2023-02-02T08:01:51.569Z,99768.00
2023-02-02T08:03:25.071Z,99780.00
2023-02-02T08:04:58.218Z,99768.00
2023-02-02T08:06:34.848Z,99790.00
2023-02-02T08:08:08.214Z,99789.00
2023-02-02T08:09:47.202Z,99785.00
2023-02-02T08:11:22.996Z,99788.00
2023-02-02T08:12:56.259Z,99788.00
2023-02-02T08:14:30.805Z,99780.00
2023-02-02T08:16:04.210Z,99791.00
2023-02-02T08:17:37.886Z,99791.00
2023-02-02T08:19:12.121Z,99786.00
2023-02-02T08:20:45.278Z,99789.00
2023-02-02T08:22:20.337Z,99793.00
2023-02-02T08:23:54.803Z,99799.00
2023-02-02T08:25:29.695Z,99788.00
2023-02-02T08:27:02.850Z,99807.00
2023-02-02T08:28:36.538Z,99795.00
2023-02-02T08:30:13.601Z,99795.00
2023-02-02T08:31:47.077Z,99803.00
2023-02-02T08:33:20.460Z,99796.00
2023-02-02T08:34:53.929Z,99804.00
2023-02-02T08:36:30.176Z,99826.00
2023-02-02T08:38:05.281Z,99812.00
2023-02-02T08:39:38.751Z,99807.00
2023-02-02T08:41:16.548Z,99821.00
2023-02-02T08:42:55.840Z,99818.00
2023-02-02T08:45:00.730Z,99818.00
2023-02-02T08:46:27.634Z,99820.00
2023-02-02T08:48:11.243Z,99817.00
2023-02-02T08:49:45.531Z,99821.00
2023-02-02T08:51:21.152Z,99830.00
2023-02-02T08:52:54.587Z,99831.00
2023-02-02T08:54:27.907Z,99819.00
2023-02-02T08:56:02.849Z,99832.00
2023-02-02T08:57:35.995Z,99835.00
2023-02-02T08:59:09.208Z,99829.00
2023-02-02T09:00:42.631Z,99833.00
2023-02-02T09:02:18.578Z,99841.00
2023-02-02T09:03:55.876Z,99847.00
2023-02-02T09:05:29.137Z,99842.00
2023-02-02T09:07:03.183Z,99848.00
2023-02-02T09:08:36.697Z,99851.00
2023-02-02T09:10:11.390Z,99853.00
2023-02-02T09:11:45.245Z,99842.00
2023-02-02T09:13:18.330Z,99847.00
2023-02-02T09:14:51.921Z,99861.00
2023-02-02T09:16:27.137Z,99851.00
2023-02-02T09:18:01.658Z,99856.00
2023-02-02T09:19:35.131Z,99866.00
2023-02-02T09:21:11.714Z,99868.00
2023-02-02T09:22:44.888Z,99853.00
2023-02-02T09:24:18.121Z,99855.00
2023-02-02T09:25:51.235Z,99869.00
2023-02-02T09:27:24.396Z,99876.00
2023-02-02T09:29:01.680Z,99872.00
2023-02-02T09:30:34.942Z,99875.00
2023-02-02T09:32:08.397Z,99879.00
2023-02-02T09:33:43.981Z,99874.00
2023-02-02T09:35:18.080Z,99896.00
2023-02-02T09:36:51.946Z,99889.00
2023-02-02T09:38:25.239Z,99886.00
2023-02-02T09:39:58.440Z,99890.00
2023-02-02T09:42:18.921Z,99887.00
2023-02-02T09:44:05.381Z,99888.00
2023-02-02T09:45:50.740Z,99890.00
2023-02-02T09:47:28.242Z,99894.00
2023-02-02T09:49:08.614Z,99895.00
2023-02-02T09:50:48.497Z,99894.00
2023-02-02T09:52:28.599Z,99896.00
2023-02-02T09:54:11.243Z,99904.00
2023-02-02T09:55:48.913Z,99903.00
2023-02-02T09:57:28.562Z,99894.00
2023-02-02T09:59:19.374Z,99917.00
2023-02-02T10:01:02.390Z,99911.00
2023-02-02T10:02:46.304Z,99917.00
2023-02-02T10:04:27.043Z,99927.00
2023-02-02T10:06:08.165Z,99915.00
2023-02-02T10:07:46.826Z,99933.00
2023-02-02T10:09:39.292Z,99925.00
2023-02-02T10:11:33.895Z,99929.00
2023-02-02T10:13:12.883Z,99934.00
2023-02-02T10:14:55.390Z,99940.00
2023-02-02T10:16:29.919Z,99944.00
2023-02-02T10:18:13.327Z,99954.00
2023-02-02T10:19:54.071Z,99938.00
2023-02-02T10:21:40.272Z,99939.00
2023-02-02T10:23:28.398Z,99954.00
2023-02-02T10:25:01.869Z,99946.00
2023-02-02T10:26:40.884Z,99949.00
2023-02-02T10:28:20.844Z,99967.00
2023-02-02T10:30:01.643Z,99961.00
2023-02-02T10:31:44.774Z,99957.00
2023-02-02T10:33:29.183Z,99946.00
2023-02-02T10:35:28.513Z,99956.00
2023-02-02T10:37:30.483Z,99950.00
2023-02-02T10:39:20.563Z,99945.00
2023-02-02T10:41:07.180Z,99961.00
2023-02-02T10:43:10.918Z,99952.00
2023-02-02T10:44:49.710Z,99969.00
2023-02-02T10:46:27.698Z,99961.00
2023-02-02T10:48:01.535Z,99958.00
2023-02-02T10:49:37.923Z,99960.00
2023-02-02T10:51:22.182Z,99966.00
2023-02-02T10:53:01.118Z,99965.00
2023-02-02T10:54:57.166Z,99966.00
2023-02-02T10:56:38.791Z,99969.00
2023-02-02T10:58:27.350Z,99972.00
2023-02-02T11:00:11.866Z,99973.00
2023-02-02T11:01:45.708Z,99974.00
2023-02-02T11:03:25.039Z,99972.00
2023-02-02T11:05:16.200Z,99981.00
2023-02-02T11:06:50.177Z,99973.00
2023-02-02T11:08:30.976Z,99980.00
2023-02-02T11:10:04.373Z,99978.00
2023-02-02T11:11:42.703Z,99973.00
2023-02-02T11:13:27.932Z,99977.00
2023-02-02T11:15:05.405Z,99976.00
2023-02-02T11:16:43.728Z,99980.00
2023-02-02T11:18:30.968Z,99976.00
2023-02-02T11:20:26.592Z,99971.00
2023-02-02T11:22:06.008Z,99978.00
2023-02-02T11:23:40.104Z,99984.00
2023-02-02T11:25:29.205Z,99982.00
2023-02-02T11:27:07.980Z,99981.00
2023-02-02T11:28:42.215Z,99984.00
2023-02-02T11:30:28.970Z,99971.00
2023-02-02T11:32:26.627Z,99981.00
2023-02-02T11:34:20.745Z,99976.00
2023-02-02T11:35:57.792Z,99980.00
2023-02-02T11:37:34.512Z,99973.00
2023-02-02T11:39:22.361Z,99971.00
2023-02-02T11:41:02.412Z,99981.00
2023-02-02T11:42:35.636Z,99973.00
2023-02-02T11:44:24.782Z,99981.00
2023-02-02T11:46:03.855Z,99975.00
2023-02-02T11:47:37.341Z,99981.00
2023-02-02T11:49:18.965Z,99985.00
2023-02-02T11:50:55.951Z,99968.00
2023-02-02T11:52:34.081Z,99967.00
2023-02-02T11:54:17.905Z,99977.00
2023-02-02T11:55:52.372Z,99971.00
2023-02-02T11:57:29.142Z,99974.00
2023-02-02T11:59:03.926Z,99986.00
2023-02-02T12:00:49.334Z,99972.00
2023-02-02T12:02:32.093Z,99971.00
2023-02-02T12:04:26.252Z,99972.00
2023-02-02T12:06:02.072Z,99973.00
2023-02-02T12:07:37.706Z,99964.00
2023-02-02T12:09:15.532Z,99961.00
2023-02-02T12:10:59.787Z,99962.00
2023-02-02T12:12:53.474Z,99973.00
2023-02-02T12:14:50.994Z,99964.00
2023-02-02T12:16:45.598Z,99968.00
2023-02-02T12:18:39.773Z,99971.00
2023-02-02T12:20:31.111Z,99962.00
2023-02-02T12:22:21.535Z,99968.00
2023-02-02T12:24:18.431Z,99959.00
2023-02-02T12:26:12.272Z,99976.00
2023-02-02T12:27:58.308Z,99968.00
2023-02-02T12:29:49.138Z,99976.00
2023-02-02T12:31:34.363Z,99969.00
2023-02-02T12:33:25.023Z,99967.00
2023-02-02T12:35:21.782Z,99967.00
2023-02-02T12:37:08.647Z,99961.00
2023-02-02T12:39:05.880Z,99975.00
2023-02-02T12:41:12.592Z,99965.00
2023-02-02T12:43:03.882Z,99973.00
2023-02-02T12:44:54.136Z,99967.00
2023-02-02T12:46:47.457Z,99974.00
2023-02-02T12:48:39.132Z,99977.00
2023-02-02T12:50:31.116Z,99978.00
2023-02-02T12:52:20.962Z,99971.00
2023-02-02T12:54:33.671Z,99980.00
2023-02-02T12:56:23.736Z,99980.00
2023-02-02T12:58:11.573Z,99979.00
2023-02-02T13:00:32.355Z,99975.00
2023-02-02T13:02:19.033Z,99985.00
2023-02-02T13:04:17.575Z,99987.00
2023-02-02T13:06:18.349Z,99980.00
2023-02-02T13:07:59.396Z,99989.00
2023-02-02T13:09:42.164Z,99994.00
2023-02-02T13:11:32.981Z,99991.00
2023-02-02T13:13:13.221Z,99977.00
2023-02-02T13:14:51.162Z,99986.00
2023-02-02T13:16:25.578Z,99988.00
2023-02-02T13:18:02.958Z,99984.00
2023-02-02T13:19:41.443Z,99977.00
2023-02-02T13:21:20.350Z,99989.00
2023-02-02T13:23:00.115Z,99988.00
2023-02-02T13:24:39.916Z,99991.00
2023-02-02T13:26:20.042Z,99978.00
2023-02-02T13:27:54.998Z,99985.00
2023-02-02T13:29:34.305Z,99992.00
2023-02-02T13:31:23.777Z,99993.00
2023-02-02T13:33:03.600Z,99991.00
2023-02-02T13:34:45.666Z,99988.00
2023-02-02T13:36:29.422Z,99988.00
2023-02-02T13:38:14.720Z,99990.00
2023-02-02T13:39:59.347Z,99982.00
2023-02-02T13:41:33.277Z,99986.00
2023-02-02T13:43:23.254Z,99988.00
2023-02-02T13:45:08.195Z,99995.00
2023-02-02T13:46:49.495Z,99995.00
2023-02-02T13:48:35.458Z,99993.00
2023-02-02T13:50:17.927Z,99990.00
2023-02-02T13:52:09.754Z,100000.00
2023-02-02T13:54:11.336Z,99993.00
2023-02-02T13:56:18.188Z,100010.00
2023-02-02T13:58:30.962Z,100005.00
2023-02-02T14:00:18.302Z,100006.00
2023-02-02T14:01:52.733Z,100004.00
2023-02-02T14:03:38.641Z,100009.00
2023-02-02T14:05:26.420Z,100000.00
2023-02-02T14:08:38.201Z,100006.00
2023-02-02T14:10:26.451Z,100011.00
2023-02-02T14:12:06.768Z,100013.00
2023-02-02T14:14:04.918Z,100013.00
2023-02-02T14:15:40.825Z,100007.00
2023-02-02T14:17:51.014Z,100016.00
2023-02-02T14:19:52.615Z,100005.00
2023-02-02T14:22:03.834Z,100018.00
2023-02-02T14:23:55.442Z,100009.00
2023-02-02T14:26:06.319Z,100024.00
2023-02-02T14:27:58.558Z,100020.00
2023-02-02T14:29:59.697Z,100028.00
2023-02-02T14:31:54.275Z,100029.00
2023-02-02T14:33:47.301Z,100023.00
2023-02-02T14:35:58.102Z,100036.00
2023-02-02T14:37:50.405Z,100032.00
2023-02-02T14:39:30.073Z,100030.00
2023-02-02T14:41:35.721Z,100036.00
2023-02-02T14:43:46.341Z,100034.00
2023-02-02T14:45:32.341Z,100040.00
2023-02-02T14:47:43.208Z,100042.00
2023-02-02T14:49:23.995Z,100033.00
2023-02-02T14:50:59.935Z,100029.00
2023-02-02T14:52:34.415Z,100029.00
2023-02-02T14:54:09.196Z,100035.00
2023-02-02T14:55:56.865Z,100041.00
2023-02-02T14:57:32.491Z,100038.00
2023-02-02T14:59:18.543Z,100041.00
2023-02-02T15:01:00.736Z,100041.00
2023-02-02T15:02:37.016Z,100052.00
2023-02-02T15:04:27.889Z,100049.00
2023-02-02T15:06:09.409Z,100051.00
2023-02-02T15:07:55.036Z,100052.00
2023-02-02T15:09:39.635Z,100046.00
2023-02-02T15:11:32.188Z,100049.00
2023-02-02T15:13:12.047Z,100058.00
2023-02-02T15:14:52.397Z,100052.00
2023-02-02T15:16:31.949Z,100073.00
2023-02-02T15:18:19.351Z,100062.00
2023-02-02T15:20:03.428Z,100070.00
2023-02-02T15:21:41.533Z,100068.00
2023-02-02T15:23:30.067Z,100068.00
2023-02-02T15:25:18.342Z,100059.00
2023-02-02T15:26:54.747Z,100063.00
2023-02-02T15:28:41.905Z,100070.00
2023-02-02T15:30:18.523Z,100074.00
2023-02-02T15:31:55.137Z,100070.00
2023-02-02T15:33:35.170Z,100076.00
2023-02-02T15:35:18.799Z,100074.00
2023-02-02T15:36:56.353Z,100078.00
2023-02-02T15:38:37.314Z,100068.00
2023-02-02T15:40:22.232Z,100074.00
2023-02-02T15:42:11.877Z,100082.00
2023-02-02T15:43:45.760Z,100079.00
2023-02-02T15:45:39.746Z,100084.00
2023-02-02T15:47:17.850Z,100084.00
2023-02-02T15:49:32.722Z,100095.00
2023-02-02T15:51:20.212Z,100080.00
2023-02-02T15:52:55.537Z,100093.00
2023-02-02T15:54:31.784Z,100095.00
2023-02-02T15:56:21.535Z,100089.00
2023-02-02T15:57:55.161Z,100089.00
2023-02-02T15:59:31.962Z,100088.00
2023-02-02T16:01:16.667Z,100087.00
2023-02-02T16:02:56.283Z,100091.00
2023-02-02T16:04:36.048Z,100099.00
2023-02-02T16:06:10.471Z,100094.00
2023-02-02T16:07:46.661Z,100097.00
2023-02-02T16:09:28.684Z,100088.00
2023-02-02T16:11:10.326Z,100093.00
2023-02-02T16:12:44.031Z,100096.00
2023-02-02T16:14:18.568Z,100095.00
2023-02-02T16:15:59.116Z,100099.00
2023-02-02T16:17:35.856Z,100100.00
2023-02-02T16:19:17.479Z,100103.00
2023-02-02T16:20:53.329Z,100106.00
2023-02-02T16:22:27.828Z,100098.00
2023-02-02T16:24:04.966Z,100116.00
2023-02-02T16:25:52.451Z,100113.00
2023-02-02T16:27:30.065Z,100111.00
2023-02-02T16:29:03.624Z,100121.00
2023-02-02T16:30:40.265Z,100124.00
2023-02-02T16:32:30.335Z,100128.00
2023-02-02T16:34:05.025Z,100136.00
2023-02-02T16:35:40.868Z,100126.00
2023-02-02T16:37:17.999Z,100124.00
2023-02-02T16:38:52.425Z,100127.00
2023-02-02T16:40:29.951Z,100130.00
2023-02-02T16:42:11.580Z,100128.00
2023-02-02T16:43:44.896Z,100127.00
2023-02-02T16:45:35.987Z,100123.00
2023-02-02T16:47:32.930Z,100134.00
2023-02-02T16:49:18.990Z,100127.00
2023-02-02T16:51:10.154Z,100124.00
2023-02-02T16:52:52.575Z,100122.00
2023-02-02T16:54:26.130Z,100134.00
2023-02-02T16:55:59.527Z,100140.00
2023-02-02T16:57:34.776Z,100142.00
2023-02-02T16:59:20.310Z,100143.00
2023-02-02T17:01:14.858Z,100136.00
2023-02-02T17:02:57.573Z,100144.00
2023-02-02T17:04:35.301Z,100140.00
2023-02-02T17:06:09.269Z,100140.00
2023-02-02T17:07:50.758Z,100141.00
2023-02-02T17:09:36.371Z,100140.00
2023-02-02T17:11:24.573Z,100142.00
2023-02-02T17:12:59.797Z,100141.00
2023-02-02T17:14:38.034Z,100140.00
2023-02-02T17:16:18.923Z,100139.00
2023-02-02T17:17:53.470Z,100141.00
2023-02-02T17:19:32.076Z,100142.00
2023-02-02T17:21:07.656Z,100141.00
2023-02-02T17:22:44.110Z,100134.00
2023-02-02T17:24:17.681Z,100141.00
2023-02-02T17:25:51.079Z,100131.00
2023-02-02T17:27:31.685Z,100137.00
2023-02-02T17:29:06.809Z,100132.00
2023-02-02T17:30:41.977Z,100137.00
2023-02-02T17:32:15.460Z,100133.00
2023-02-02T17:33:48.789Z,100146.00
2023-02-02T17:35:26.155Z,100136.00
2023-02-02T17:37:00.107Z,100142.00
2023-02-02T17:38:34.107Z,100146.00
2023-02-02T17:40:10.171Z,100147.00
2023-02-02T17:41:46.996Z,100145.00
2023-02-02T17:43:20.183Z,100154.00
2023-02-02T17:44:53.328Z,100147.00
2023-02-02T17:46:28.290Z,100162.00
2023-02-02T17:48:01.955Z,100170.00
2023-02-02T17:49:35.374Z,100159.00
2023-02-02T17:51:16.742Z,100167.00
2023-02-02T17:52:51.858Z,100171.00
2023-02-02T17:54:24.963Z,100174.00
2023-02-02T17:55:58.223Z,100171.00
2023-02-02T17:57:31.413Z,100174.00
2023-02-02T17:59:04.640Z,100174.00
2023-02-02T18:00:41.899Z,100183.00
2023-02-02T18:02:17.468Z,100179.00
2023-02-02T18:03:50.844Z,100177.00
2023-02-02T18:05:24.267Z,100172.00
2023-02-02T18:06:58.955Z,100169.00
2023-02-02T18:08:34.501Z,100169.00
2023-02-02T18:10:10.280Z,100174.00
2023-02-02T18:11:45.422Z,100174.00
2023-02-02T18:13:22.197Z,100167.00
2023-02-02T18:14:55.293Z,100171.00
2023-02-02T18:16:28.446Z,100165.00
2023-02-02T18:18:01.913Z,100170.00
2023-02-02T18:19:35.091Z,100167.00
2023-02-02T18:21:13.949Z,100168.00
2023-02-02T18:22:48.603Z,100168.00
2023-02-02T18:24:21.863Z,100170.00
2023-02-02T18:25:55.017Z,100172.00
2023-02-02T18:27:30.877Z,100168.00
2023-02-02T18:29:04.126Z,100171.00
2023-02-02T18:30:39.718Z,100166.00
2023-02-02T18:32:12.942Z,100163.00
2023-02-02T18:33:47.171Z,100170.00
2023-02-02T18:35:20.363Z,100173.00
2023-02-02T18:36:52.511Z,100181.00
2023-02-02T18:38:27.296Z,100168.00
2023-02-02T18:40:01.208Z,100175.00
2023-02-02T18:41:34.453Z,100175.00
2023-02-02T18:43:07.681Z,100177.00
2023-02-02T18:44:41.127Z,100178.00
2023-02-02T18:46:17.224Z,100181.00
2023-02-02T18:47:50.474Z,100173.00
2023-02-02T18:49:24.597Z,100168.00
2023-02-02T18:50:57.723Z,100165.00
2023-02-02T18:52:33.941Z,100169.00
2023-02-02T18:54:10.424Z,100159.00
2023-02-02T18:55:43.807Z,100163.00
2023-02-02T18:57:17.640Z,100161.00
2023-02-02T18:58:51.396Z,100162.00
2023-02-02T19:00:25.082Z,100167.00
2023-02-02T19:01:58.582Z,100153.00
2023-02-02T19:03:31.937Z,100157.00
2023-02-02T19:05:22.782Z,100159.00
2023-02-02T19:07:13.478Z,100158.00
2023-02-02T19:08:46.654Z,100159.00
2023-02-02T19:10:21.691Z,100154.00
2023-02-02T19:11:55.434Z,100151.00
2023-02-02T19:13:30.575Z,100150.00
2023-02-02T19:15:11.458Z,100149.00